sensor_id;sensor_type;location;lat;lon;timestamp;P1;durP1;ratioP1;P2;durP2;ratioP2
69981;SDS011;57319;56.274;43.980;2024-01-16T00:00:33;3.63;;;3.42;;
69981;SDS011;57319;56.274;43.980;2024-01-16T00:02:59;5.05;;;4.13;;
69981;SDS011;57319;56.274;43.980;2024-01-16T00:05:25;4.97;;;3.53;;
69981;SDS011;57319;56.274;43.980;2024-01-16T00:07:50;4.65;;;3.88;;
69981;SDS011;57319;56.274;43.980;2024-01-16T00:10:16;2.95;;;2.72;;
69981;SDS011;57319;56.274;43.980;2024-01-16T00:12:41;4.05;;;3.63;;
69981;SDS011;57319;56.274;43.980;2024-01-16T00:15:07;4.45;;;4.07;;
69981;SDS011;57319;56.274;43.980;2024-01-16T00:17:34;6.13;;;4.25;;
69981;SDS011;57319;56.274;43.980;2024-01-16T00:20:00;5.45;;;4.72;;
69981;SDS011;57319;56.274;43.980;2024-01-16T00:22:26;5.07;;;3.70;;
69981;SDS011;57319;56.274;43.980;2024-01-16T00:24:52;4.22;;;3.85;;
69981;SDS011;57319;56.274;43.980;2024-01-16T00:27:18;5.95;;;4.80;;
69981;SDS011;57319;56.274;43.980;2024-01-16T00:29:43;3.72;;;3.42;;
69981;SDS011;57319;56.274;43.980;2024-01-16T00:32:09;5.28;;;3.92;;
69981;SDS011;57319;56.274;43.980;2024-01-16T00:34:34;5.40;;;4.90;;
69981;SDS011;57319;56.274;43.980;2024-01-16T00:37:00;7.70;;;4.93;;
69981;SDS011;57319;56.274;43.980;2024-01-16T00:39:26;5.97;;;5.15;;
69981;SDS011;57319;56.274;43.980;2024-01-16T00:41:51;6.22;;;5.40;;
69981;SDS011;57319;56.274;43.980;2024-01-16T00:44:17;4.20;;;3.90;;
69981;SDS011;57319;56.274;43.980;2024-01-16T00:46:42;5.43;;;4.93;;
69981;SDS011;57319;56.274;43.980;2024-01-16T00:49:08;7.22;;;4.82;;
69981;SDS011;57319;56.274;43.980;2024-01-16T00:51:34;6.00;;;4.60;;
69981;SDS011;57319;56.274;43.980;2024-01-16T00:54:00;8.52;;;5.65;;
69981;SDS011;57319;56.274;43.980;2024-01-16T00:56:26;5.07;;;4.30;;
69981;SDS011;57319;56.274;43.980;2024-01-16T00:58:56;7.25;;;5.50;;
69981;SDS011;57319;56.274;43.980;2024-01-16T01:01:22;7.93;;;5.72;;
69981;SDS011;57319;56.274;43.980;2024-01-16T01:03:48;8.27;;;5.72;;
69981;SDS011;57319;56.274;43.980;2024-01-16T01:06:13;9.65;;;5.80;;
69981;SDS011;57319;56.274;43.980;2024-01-16T01:08:39;8.45;;;6.13;;
69981;SDS011;57319;56.274;43.980;2024-01-16T01:11:04;12.57;;;5.82;;
69981;SDS011;57319;56.274;43.980;2024-01-16T01:13:30;8.02;;;6.20;;
69981;SDS011;57319;56.274;43.980;2024-01-16T01:15:55;4.35;;;4.00;;
69981;SDS011;57319;56.274;43.980;2024-01-16T01:18:21;6.38;;;5.45;;
69981;SDS011;57319;56.274;43.980;2024-01-16T01:20:47;7.20;;;5.15;;
69981;SDS011;57319;56.274;43.980;2024-01-16T01:23:13;6.32;;;5.18;;
69981;SDS011;57319;56.274;43.980;2024-01-16T01:25:38;8.23;;;5.72;;
69981;SDS011;57319;56.274;43.980;2024-01-16T01:28:04;5.32;;;4.75;;
69981;SDS011;57319;56.274;43.980;2024-01-16T01:30:31;6.35;;;5.20;;
69981;SDS011;57319;56.274;43.980;2024-01-16T01:32:57;6.70;;;4.88;;
69981;SDS011;57319;56.274;43.980;2024-01-16T01:35:22;6.72;;;5.72;;
69981;SDS011;57319;56.274;43.980;2024-01-16T01:37:48;6.28;;;5.53;;
69981;SDS011;57319;56.274;43.980;2024-01-16T01:40:14;5.25;;;4.65;;
69981;SDS011;57319;56.274;43.980;2024-01-16T01:42:43;9.75;;;6.10;;
69981;SDS011;57319;56.274;43.980;2024-01-16T01:45:10;5.72;;;4.78;;
69981;SDS011;57319;56.274;43.980;2024-01-16T01:47:39;9.48;;;6.60;;
69981;SDS011;57319;56.274;43.980;2024-01-16T01:50:07;10.52;;;7.00;;
69981;SDS011;57319;56.274;43.980;2024-01-16T01:52:33;12.35;;;7.05;;
69981;SDS011;57319;56.274;43.980;2024-01-16T01:55:00;15.38;;;8.02;;
69981;SDS011;57319;56.274;43.980;2024-01-16T01:57:28;10.23;;;6.55;;
69981;SDS011;57319;56.274;43.980;2024-01-16T01:59:54;15.95;;;7.38;;
69981;SDS011;57319;56.274;43.980;2024-01-16T02:02:20;12.75;;;7.93;;
69981;SDS011;57319;56.274;43.980;2024-01-16T02:04:47;10.98;;;7.45;;
69981;SDS011;57319;56.274;43.980;2024-01-16T02:07:13;13.35;;;8.02;;
69981;SDS011;57319;56.274;43.980;2024-01-16T02:09:39;6.45;;;5.85;;
69981;SDS011;57319;56.274;43.980;2024-01-16T02:12:05;14.70;;;7.03;;
69981;SDS011;57319;56.274;43.980;2024-01-16T02:14:32;4.90;;;4.40;;
69981;SDS011;57319;56.274;43.980;2024-01-16T02:16:57;10.60;;;6.93;;
69981;SDS011;57319;56.274;43.980;2024-01-16T02:19:23;6.60;;;4.50;;
69981;SDS011;57319;56.274;43.980;2024-01-16T02:21:51;12.18;;;6.82;;
69981;SDS011;57319;56.274;43.980;2024-01-16T02:24:20;11.88;;;7.60;;
69981;SDS011;57319;56.274;43.980;2024-01-16T02:26:46;8.40;;;6.55;;
69981;SDS011;57319;56.274;43.980;2024-01-16T02:29:12;11.73;;;7.10;;
69981;SDS011;57319;56.274;43.980;2024-01-16T02:31:38;13.10;;;8.15;;
69981;SDS011;57319;56.274;43.980;2024-01-16T02:34:04;7.07;;;5.18;;
69981;SDS011;57319;56.274;43.980;2024-01-16T02:36:29;9.63;;;7.20;;
69981;SDS011;57319;56.274;43.980;2024-01-16T02:38:55;11.73;;;7.88;;
69981;SDS011;57319;56.274;43.980;2024-01-16T02:41:21;12.77;;;8.60;;
69981;SDS011;57319;56.274;43.980;2024-01-16T02:43:46;12.52;;;6.70;;
69981;SDS011;57319;56.274;43.980;2024-01-16T02:46:13;12.60;;;7.53;;
69981;SDS011;57319;56.274;43.980;2024-01-16T02:48:41;10.73;;;6.53;;
69981;SDS011;57319;56.274;43.980;2024-01-16T02:51:07;19.42;;;8.50;;
69981;SDS011;57319;56.274;43.980;2024-01-16T02:53:33;12.05;;;8.90;;
69981;SDS011;57319;56.274;43.980;2024-01-16T02:55:59;13.07;;;7.50;;
69981;SDS011;57319;56.274;43.980;2024-01-16T02:58:26;8.93;;;6.38;;
69981;SDS011;57319;56.274;43.980;2024-01-16T03:00:55;12.07;;;8.90;;
69981;SDS011;57319;56.274;43.980;2024-01-16T03:03:21;14.38;;;8.57;;
69981;SDS011;57319;56.274;43.980;2024-01-16T03:05:47;9.30;;;7.05;;
69981;SDS011;57319;56.274;43.980;2024-01-16T03:08:13;12.75;;;7.90;;
69981;SDS011;57319;56.274;43.980;2024-01-16T03:10:38;11.68;;;7.05;;
69981;SDS011;57319;56.274;43.980;2024-01-16T03:13:04;14.77;;;9.10;;
69981;SDS011;57319;56.274;43.980;2024-01-16T03:15:30;13.95;;;7.60;;
69981;SDS011;57319;56.274;43.980;2024-01-16T03:17:56;9.65;;;6.95;;
69981;SDS011;57319;56.274;43.980;2024-01-16T03:20:22;11.75;;;8.15;;
69981;SDS011;57319;56.274;43.980;2024-01-16T03:22:48;16.13;;;8.10;;
69981;SDS011;57319;56.274;43.980;2024-01-16T03:25:15;9.52;;;7.28;;
69981;SDS011;57319;56.274;43.980;2024-01-16T03:27:41;10.85;;;6.57;;
69981;SDS011;57319;56.274;43.980;2024-01-16T03:30:08;6.72;;;5.90;;
69981;SDS011;57319;56.274;43.980;2024-01-16T03:32:34;11.90;;;7.72;;
69981;SDS011;57319;56.274;43.980;2024-01-16T03:35:03;14.35;;;8.18;;
69981;SDS011;57319;56.274;43.980;2024-01-16T03:37:32;12.20;;;8.40;;
69981;SDS011;57319;56.274;43.980;2024-01-16T03:39:58;10.73;;;7.40;;
69981;SDS011;57319;56.274;43.980;2024-01-16T03:42:24;11.40;;;7.68;;
69981;SDS011;57319;56.274;43.980;2024-01-16T03:44:49;11.60;;;8.23;;
69981;SDS011;57319;56.274;43.980;2024-01-16T03:47:15;11.65;;;7.65;;
69981;SDS011;57319;56.274;43.980;2024-01-16T03:49:41;10.13;;;6.78;;
69981;SDS011;57319;56.274;43.980;2024-01-16T03:52:07;13.35;;;8.75;;
69981;SDS011;57319;56.274;43.980;2024-01-16T03:54:32;17.50;;;10.63;;
69981;SDS011;57319;56.274;43.980;2024-01-16T03:56:58;19.33;;;8.52;;
69981;SDS011;57319;56.274;43.980;2024-01-16T03:59:23;14.55;;;9.65;;
69981;SDS011;57319;56.274;43.980;2024-01-16T04:01:49;23.17;;;9.90;;
69981;SDS011;57319;56.274;43.980;2024-01-16T04:04:18;19.17;;;10.93;;
69981;SDS011;57319;56.274;43.980;2024-01-16T04:06:44;15.73;;;9.55;;
69981;SDS011;57319;56.274;43.980;2024-01-16T04:09:10;14.85;;;8.95;;
69981;SDS011;57319;56.274;43.980;2024-01-16T04:11:36;13.13;;;6.93;;
69981;SDS011;57319;56.274;43.980;2024-01-16T04:14:02;10.98;;;7.35;;
69981;SDS011;57319;56.274;43.980;2024-01-16T04:16:27;15.02;;;9.50;;
69981;SDS011;57319;56.274;43.980;2024-01-16T04:18:53;21.83;;;9.95;;
69981;SDS011;57319;56.274;43.980;2024-01-16T04:21:19;17.83;;;9.02;;
69981;SDS011;57319;56.274;43.980;2024-01-16T04:23:44;13.40;;;8.25;;
69981;SDS011;57319;56.274;43.980;2024-01-16T04:26:10;23.42;;;11.80;;
69981;SDS011;57319;56.274;43.980;2024-01-16T04:28:36;15.52;;;8.57;;
69981;SDS011;57319;56.274;43.980;2024-01-16T04:31:04;17.00;;;10.70;;
69981;SDS011;57319;56.274;43.980;2024-01-16T04:33:30;19.50;;;9.10;;
69981;SDS011;57319;56.274;43.980;2024-01-16T04:35:56;25.55;;;13.57;;
69981;SDS011;57319;56.274;43.980;2024-01-16T04:38:21;17.70;;;10.73;;
69981;SDS011;57319;56.274;43.980;2024-01-16T04:40:47;22.40;;;11.68;;
69981;SDS011;57319;56.274;43.980;2024-01-16T04:43:12;19.20;;;11.32;;
69981;SDS011;57319;56.274;43.980;2024-01-16T04:45:38;17.65;;;10.88;;
69981;SDS011;57319;56.274;43.980;2024-01-16T04:48:04;16.35;;;10.13;;
69981;SDS011;57319;56.274;43.980;2024-01-16T04:50:30;18.17;;;10.27;;
69981;SDS011;57319;56.274;43.980;2024-01-16T04:52:58;20.95;;;10.55;;
69981;SDS011;57319;56.274;43.980;2024-01-16T04:55:30;23.02;;;10.63;;
69981;SDS011;57319;56.274;43.980;2024-01-16T04:57:56;19.35;;;11.25;;
69981;SDS011;57319;56.274;43.980;2024-01-16T05:00:22;13.32;;;10.00;;
69981;SDS011;57319;56.274;43.980;2024-01-16T05:02:48;9.75;;;7.63;;
69981;SDS011;57319;56.274;43.980;2024-01-16T05:05:14;14.23;;;7.57;;
69981;SDS011;57319;56.274;43.980;2024-01-16T05:07:40;21.80;;;10.35;;
69981;SDS011;57319;56.274;43.980;2024-01-16T05:10:06;10.18;;;7.35;;
69981;SDS011;57319;56.274;43.980;2024-01-16T05:12:38;13.10;;;8.80;;
69981;SDS011;57319;56.274;43.980;2024-01-16T05:15:04;18.05;;;10.88;;
69981;SDS011;57319;56.274;43.980;2024-01-16T05:17:30;18.75;;;10.65;;
69981;SDS011;57319;56.274;43.980;2024-01-16T05:19:56;23.55;;;12.45;;
69981;SDS011;57319;56.274;43.980;2024-01-16T05:22:21;28.40;;;13.07;;
69981;SDS011;57319;56.274;43.980;2024-01-16T05:24:47;25.73;;;11.95;;
69981;SDS011;57319;56.274;43.980;2024-01-16T05:27:13;26.75;;;13.88;;
69981;SDS011;57319;56.274;43.980;2024-01-16T05:29:42;30.77;;;14.35;;
69981;SDS011;57319;56.274;43.980;2024-01-16T05:32:07;17.80;;;11.68;;
69981;SDS011;57319;56.274;43.980;2024-01-16T05:34:33;28.67;;;14.02;;
69981;SDS011;57319;56.274;43.980;2024-01-16T05:36:58;20.25;;;11.45;;
69981;SDS011;57319;56.274;43.980;2024-01-16T05:39:24;28.17;;;13.40;;
69981;SDS011;57319;56.274;43.980;2024-01-16T05:41:49;29.05;;;13.95;;
69981;SDS011;57319;56.274;43.980;2024-01-16T05:44:15;18.98;;;11.13;;
69981;SDS011;57319;56.274;43.980;2024-01-16T05:46:41;23.38;;;13.73;;
69981;SDS011;57319;56.274;43.980;2024-01-16T05:49:06;23.85;;;12.30;;
69981;SDS011;57319;56.274;43.980;2024-01-16T05:51:32;20.75;;;11.00;;
69981;SDS011;57319;56.274;43.980;2024-01-16T05:53:58;28.33;;;13.55;;
69981;SDS011;57319;56.274;43.980;2024-01-16T05:56:23;22.02;;;11.65;;
69981;SDS011;57319;56.274;43.980;2024-01-16T05:58:49;19.80;;;10.52;;
69981;SDS011;57319;56.274;43.980;2024-01-16T06:01:14;23.20;;;11.85;;
69981;SDS011;57319;56.274;43.980;2024-01-16T06:03:40;22.25;;;12.90;;
69981;SDS011;57319;56.274;43.980;2024-01-16T06:06:07;20.45;;;10.63;;
69981;SDS011;57319;56.274;43.980;2024-01-16T06:08:33;18.52;;;10.48;;
69981;SDS011;57319;56.274;43.980;2024-01-16T06:10:59;31.25;;;15.25;;
69981;SDS011;57319;56.274;43.980;2024-01-16T06:13:25;24.48;;;9.90;;
69981;SDS011;57319;56.274;43.980;2024-01-16T06:15:50;22.80;;;12.38;;
69981;SDS011;57319;56.274;43.980;2024-01-16T06:18:16;17.55;;;9.95;;
69981;SDS011;57319;56.274;43.980;2024-01-16T06:20:42;25.00;;;12.60;;
69981;SDS011;57319;56.274;43.980;2024-01-16T06:23:07;19.48;;;9.52;;
69981;SDS011;57319;56.274;43.980;2024-01-16T06:25:33;21.23;;;11.48;;
69981;SDS011;57319;56.274;43.980;2024-01-16T06:27:58;18.92;;;12.10;;
69981;SDS011;57319;56.274;43.980;2024-01-16T06:30:24;28.17;;;14.35;;
69981;SDS011;57319;56.274;43.980;2024-01-16T06:32:50;22.90;;;11.30;;
69981;SDS011;57319;56.274;43.980;2024-01-16T06:35:16;24.67;;;12.23;;
69981;SDS011;57319;56.274;43.980;2024-01-16T06:37:42;19.00;;;9.85;;
69981;SDS011;57319;56.274;43.980;2024-01-16T06:40:08;18.80;;;11.70;;
69981;SDS011;57319;56.274;43.980;2024-01-16T06:42:34;15.15;;;9.45;;
69981;SDS011;57319;56.274;43.980;2024-01-16T06:45:01;24.67;;;11.98;;
69981;SDS011;57319;56.274;43.980;2024-01-16T06:47:27;34.50;;;12.40;;
69981;SDS011;57319;56.274;43.980;2024-01-16T06:49:53;16.33;;;9.55;;
69981;SDS011;57319;56.274;43.980;2024-01-16T06:52:19;18.33;;;10.20;;
69981;SDS011;57319;56.274;43.980;2024-01-16T06:54:44;21.92;;;11.93;;
69981;SDS011;57319;56.274;43.980;2024-01-16T06:57:10;17.70;;;10.15;;
69981;SDS011;57319;56.274;43.980;2024-01-16T06:59:36;19.02;;;11.68;;
69981;SDS011;57319;56.274;43.980;2024-01-16T07:02:01;22.33;;;12.20;;
69981;SDS011;57319;56.274;43.980;2024-01-16T07:04:28;20.75;;;12.18;;
69981;SDS011;57319;56.274;43.980;2024-01-16T07:06:54;18.60;;;11.02;;
69981;SDS011;57319;56.274;43.980;2024-01-16T07:09:19;23.88;;;10.82;;
69981;SDS011;57319;56.274;43.980;2024-01-16T07:11:46;12.85;;;7.25;;
69981;SDS011;57319;56.274;43.980;2024-01-16T07:14:12;15.48;;;9.10;;
69981;SDS011;57319;56.274;43.980;2024-01-16T07:16:38;23.98;;;12.65;;
69981;SDS011;57319;56.274;43.980;2024-01-16T07:19:03;19.77;;;10.38;;
69981;SDS011;57319;56.274;43.980;2024-01-16T07:21:29;17.90;;;10.10;;
69981;SDS011;57319;56.274;43.980;2024-01-16T07:23:55;29.33;;;14.25;;
69981;SDS011;57319;56.274;43.980;2024-01-16T07:26:21;20.42;;;10.40;;
69981;SDS011;57319;56.274;43.980;2024-01-16T07:28:47;24.55;;;12.05;;
69981;SDS011;57319;56.274;43.980;2024-01-16T07:31:13;15.77;;;8.90;;
69981;SDS011;57319;56.274;43.980;2024-01-16T07:33:41;14.05;;;8.00;;
69981;SDS011;57319;56.274;43.980;2024-01-16T07:36:08;24.10;;;12.20;;
69981;SDS011;57319;56.274;43.980;2024-01-16T07:38:35;17.33;;;10.85;;
69981;SDS011;57319;56.274;43.980;2024-01-16T07:41:01;21.80;;;10.85;;
69981;SDS011;57319;56.274;43.980;2024-01-16T07:43:27;22.60;;;11.05;;
69981;SDS011;57319;56.274;43.980;2024-01-16T07:45:55;20.65;;;10.93;;
69981;SDS011;57319;56.274;43.980;2024-01-16T07:48:21;16.23;;;10.30;;
69981;SDS011;57319;56.274;43.980;2024-01-16T07:50:48;15.48;;;9.38;;
69981;SDS011;57319;56.274;43.980;2024-01-16T07:53:13;19.98;;;11.00;;
69981;SDS011;57319;56.274;43.980;2024-01-16T07:55:40;17.10;;;10.00;;
69981;SDS011;57319;56.274;43.980;2024-01-16T07:58:12;16.98;;;9.65;;
69981;SDS011;57319;56.274;43.980;2024-01-16T08:00:38;14.85;;;9.60;;
69981;SDS011;57319;56.274;43.980;2024-01-16T08:03:06;18.83;;;10.32;;
69981;SDS011;57319;56.274;43.980;2024-01-16T08:05:33;15.57;;;8.93;;
69981;SDS011;57319;56.274;43.980;2024-01-16T08:07:58;14.38;;;9.45;;
69981;SDS011;57319;56.274;43.980;2024-01-16T08:10:24;21.73;;;9.77;;
69981;SDS011;57319;56.274;43.980;2024-01-16T08:12:50;15.95;;;8.73;;
69981;SDS011;57319;56.274;43.980;2024-01-16T08:15:15;13.43;;;8.48;;
69981;SDS011;57319;56.274;43.980;2024-01-16T08:17:41;20.65;;;10.75;;
69981;SDS011;57319;56.274;43.980;2024-01-16T08:20:07;19.70;;;11.43;;
69981;SDS011;57319;56.274;43.980;2024-01-16T08:22:36;18.08;;;9.65;;
69981;SDS011;57319;56.274;43.980;2024-01-16T08:25:03;20.00;;;10.25;;
69981;SDS011;57319;56.274;43.980;2024-01-16T08:27:30;11.50;;;7.05;;
69981;SDS011;57319;56.274;43.980;2024-01-16T08:29:56;10.90;;;7.78;;
69981;SDS011;57319;56.274;43.980;2024-01-16T08:32:22;20.45;;;9.55;;
69981;SDS011;57319;56.274;43.980;2024-01-16T08:34:48;10.88;;;7.75;;
69981;SDS011;57319;56.274;43.980;2024-01-16T08:37:13;16.50;;;9.20;;
69981;SDS011;57319;56.274;43.980;2024-01-16T08:39:39;19.88;;;11.27;;
69981;SDS011;57319;56.274;43.980;2024-01-16T08:42:05;25.35;;;11.77;;
69981;SDS011;57319;56.274;43.980;2024-01-16T08:44:31;22.02;;;11.63;;
69981;SDS011;57319;56.274;43.980;2024-01-16T08:46:57;20.60;;;9.82;;
69981;SDS011;57319;56.274;43.980;2024-01-16T08:49:24;22.15;;;10.90;;
69981;SDS011;57319;56.274;43.980;2024-01-16T08:51:50;19.10;;;11.07;;
69981;SDS011;57319;56.274;43.980;2024-01-16T08:54:15;27.83;;;11.57;;
69981;SDS011;57319;56.274;43.980;2024-01-16T08:56:41;17.88;;;9.10;;
69981;SDS011;57319;56.274;43.980;2024-01-16T08:59:06;10.75;;;7.65;;
69981;SDS011;57319;56.274;43.980;2024-01-16T09:01:33;26.90;;;12.52;;
69981;SDS011;57319;56.274;43.980;2024-01-16T09:03:58;18.55;;;9.73;;
69981;SDS011;57319;56.274;43.980;2024-01-16T09:06:24;21.05;;;10.43;;
69981;SDS011;57319;56.274;43.980;2024-01-16T09:08:50;19.48;;;11.27;;
69981;SDS011;57319;56.274;43.980;2024-01-16T09:11:15;20.48;;;9.88;;
69981;SDS011;57319;56.274;43.980;2024-01-16T09:13:41;24.67;;;11.43;;
69981;SDS011;57319;56.274;43.980;2024-01-16T09:16:06;22.95;;;11.73;;
69981;SDS011;57319;56.274;43.980;2024-01-16T09:18:32;21.42;;;11.55;;
69981;SDS011;57319;56.274;43.980;2024-01-16T09:20:57;15.38;;;8.35;;
69981;SDS011;57319;56.274;43.980;2024-01-16T09:23:23;23.05;;;10.27;;
69981;SDS011;57319;56.274;43.980;2024-01-16T09:25:49;22.08;;;11.85;;
69981;SDS011;57319;56.274;43.980;2024-01-16T09:28:15;22.60;;;9.85;;
69981;SDS011;57319;56.274;43.980;2024-01-16T09:30:41;17.02;;;9.38;;
69981;SDS011;57319;56.274;43.980;2024-01-16T09:33:07;19.88;;;10.70;;
69981;SDS011;57319;56.274;43.980;2024-01-16T09:35:35;17.98;;;10.38;;
69981;SDS011;57319;56.274;43.980;2024-01-16T09:38:00;19.30;;;8.88;;
69981;SDS011;57319;56.274;43.980;2024-01-16T09:40:26;16.85;;;10.13;;
69981;SDS011;57319;56.274;43.980;2024-01-16T09:42:52;20.60;;;10.73;;
69981;SDS011;57319;56.274;43.980;2024-01-16T09:45:19;21.23;;;11.25;;
69981;SDS011;57319;56.274;43.980;2024-01-16T09:47:51;13.52;;;7.32;;
69981;SDS011;57319;56.274;43.980;2024-01-16T09:50:18;18.67;;;10.05;;
69981;SDS011;57319;56.274;43.980;2024-01-16T09:52:47;8.85;;;6.72;;
69981;SDS011;57319;56.274;43.980;2024-01-16T09:55:17;20.30;;;11.23;;
69981;SDS011;57319;56.274;43.980;2024-01-16T09:57:44;10.48;;;7.13;;
69981;SDS011;57319;56.274;43.980;2024-01-16T10:00:11;8.77;;;5.20;;
69981;SDS011;57319;56.274;43.980;2024-01-16T10:02:38;20.98;;;10.18;;
69981;SDS011;57319;56.274;43.980;2024-01-16T10:05:12;9.90;;;5.28;;
69981;SDS011;57319;56.274;43.980;2024-01-16T10:07:39;11.25;;;6.53;;
69981;SDS011;57319;56.274;43.980;2024-01-16T10:10:10;10.77;;;6.18;;
69981;SDS011;57319;56.274;43.980;2024-01-16T10:12:38;13.05;;;6.40;;
69981;SDS011;57319;56.274;43.980;2024-01-16T10:15:05;5.35;;;4.13;;
69981;SDS011;57319;56.274;43.980;2024-01-16T10:17:39;9.73;;;6.70;;
69981;SDS011;57319;56.274;43.980;2024-01-16T10:20:06;12.13;;;6.40;;
69981;SDS011;57319;56.274;43.980;2024-01-16T10:22:38;17.35;;;8.82;;
69981;SDS011;57319;56.274;43.980;2024-01-16T10:25:12;19.17;;;10.07;;
69981;SDS011;57319;56.274;43.980;2024-01-16T10:27:41;18.05;;;9.50;;
69981;SDS011;57319;56.274;43.980;2024-01-16T10:30:07;24.70;;;10.90;;
69981;SDS011;57319;56.274;43.980;2024-01-16T10:32:41;17.58;;;8.30;;
69981;SDS011;57319;56.274;43.980;2024-01-16T10:35:11;10.90;;;6.80;;
69981;SDS011;57319;56.274;43.980;2024-01-16T10:40:15;15.10;;;9.18;;
69981;SDS011;57319;56.274;43.980;2024-01-16T10:42:42;21.98;;;10.65;;
69981;SDS011;57319;56.274;43.980;2024-01-16T10:45:11;18.13;;;9.45;;
69981;SDS011;57319;56.274;43.980;2024-01-16T10:47:42;20.43;;;9.30;;
69981;SDS011;57319;56.274;43.980;2024-01-16T10:50:08;20.40;;;9.98;;
69981;SDS011;57319;56.274;43.980;2024-01-16T10:52:34;16.20;;;9.07;;
69981;SDS011;57319;56.274;43.980;2024-01-16T10:55:03;6.35;;;5.32;;
69981;SDS011;57319;56.274;43.980;2024-01-16T10:57:33;16.13;;;8.32;;
69981;SDS011;57319;56.274;43.980;2024-01-16T11:00:05;19.42;;;9.18;;
69981;SDS011;57319;56.274;43.980;2024-01-16T11:02:38;11.93;;;8.35;;
69981;SDS011;57319;56.274;43.980;2024-01-16T11:05:25;20.33;;;9.32;;
69981;SDS011;57319;56.274;43.980;2024-01-16T11:07:56;18.77;;;8.00;;
69981;SDS011;57319;56.274;43.980;2024-01-16T11:10:24;11.60;;;6.22;;
69981;SDS011;57319;56.274;43.980;2024-01-16T11:12:52;14.95;;;8.02;;
69981;SDS011;57319;56.274;43.980;2024-01-16T11:15:19;10.27;;;6.20;;
69981;SDS011;57319;56.274;43.980;2024-01-16T11:17:45;7.63;;;4.85;;
69981;SDS011;57319;56.274;43.980;2024-01-16T11:20:12;6.15;;;5.45;;
69981;SDS011;57319;56.274;43.980;2024-01-16T11:22:41;13.70;;;7.97;;
69981;SDS011;57319;56.274;43.980;2024-01-16T11:27:37;11.48;;;7.35;;
69981;SDS011;57319;56.274;43.980;2024-01-16T11:30:07;9.18;;;6.63;;
69981;SDS011;57319;56.274;43.980;2024-01-16T11:32:39;11.73;;;7.78;;
69981;SDS011;57319;56.274;43.980;2024-01-16T11:35:07;8.35;;;5.97;;
69981;SDS011;57319;56.274;43.980;2024-01-16T11:37:33;11.20;;;6.75;;
69981;SDS011;57319;56.274;43.980;2024-01-16T11:42:46;8.48;;;5.85;;
69981;SDS011;57319;56.274;43.980;2024-01-16T11:48:12;11.15;;;7.05;;
69981;SDS011;57319;56.274;43.980;2024-01-16T11:50:38;12.75;;;7.53;;
69981;SDS011;57319;56.274;43.980;2024-01-16T11:53:05;8.88;;;5.60;;
69981;SDS011;57319;56.274;43.980;2024-01-16T11:55:32;11.18;;;7.15;;
69981;SDS011;57319;56.274;43.980;2024-01-16T12:03:01;8.65;;;6.25;;
69981;SDS011;57319;56.274;43.980;2024-01-16T12:05:30;6.82;;;6.03;;
69981;SDS011;57319;56.274;43.980;2024-01-16T12:07:57;9.68;;;7.03;;
69981;SDS011;57319;56.274;43.980;2024-01-16T12:10:23;6.97;;;5.57;;
69981;SDS011;57319;56.274;43.980;2024-01-16T12:12:50;8.70;;;6.10;;
69981;SDS011;57319;56.274;43.980;2024-01-16T12:15:22;7.97;;;5.95;;
69981;SDS011;57319;56.274;43.980;2024-01-16T12:17:57;3.42;;;3.20;;
69981;SDS011;57319;56.274;43.980;2024-01-16T12:20:25;8.68;;;6.18;;
69981;SDS011;57319;56.274;43.980;2024-01-16T12:22:58;6.38;;;5.07;;
69981;SDS011;57319;56.274;43.980;2024-01-16T12:25:31;9.30;;;6.40;;
69981;SDS011;57319;56.274;43.980;2024-01-16T12:28:01;8.45;;;6.15;;
69981;SDS011;57319;56.274;43.980;2024-01-16T12:30:35;8.20;;;6.13;;
69981;SDS011;57319;56.274;43.980;2024-01-16T12:35:38;9.40;;;6.63;;
69981;SDS011;57319;56.274;43.980;2024-01-16T12:38:07;12.35;;;6.07;;
69981;SDS011;57319;56.274;43.980;2024-01-16T12:40:35;9.27;;;6.22;;
69981;SDS011;57319;56.274;43.980;2024-01-16T12:43:05;5.20;;;4.72;;
69981;SDS011;57319;56.274;43.980;2024-01-16T12:45:31;6.00;;;5.35;;
69981;SDS011;57319;56.274;43.980;2024-01-16T12:47:59;5.80;;;4.57;;
69981;SDS011;57319;56.274;43.980;2024-01-16T12:50:26;5.93;;;4.78;;
69981;SDS011;57319;56.274;43.980;2024-01-16T12:53:02;5.57;;;4.57;;
69981;SDS011;57319;56.274;43.980;2024-01-16T12:55:33;9.68;;;5.90;;
69981;SDS011;57319;56.274;43.980;2024-01-16T12:58:16;7.72;;;5.18;;
69981;SDS011;57319;56.274;43.980;2024-01-16T13:00:49;5.93;;;5.32;;
69981;SDS011;57319;56.274;43.980;2024-01-16T13:03:16;10.25;;;6.28;;
69981;SDS011;57319;56.274;43.980;2024-01-16T13:05:45;6.25;;;5.25;;
69981;SDS011;57319;56.274;43.980;2024-01-16T13:08:17;7.18;;;5.90;;
69981;SDS011;57319;56.274;43.980;2024-01-16T13:10:44;7.57;;;5.03;;
69981;SDS011;57319;56.274;43.980;2024-01-16T13:13:15;12.55;;;5.82;;
69981;SDS011;57319;56.274;43.980;2024-01-16T13:15:45;10.18;;;6.60;;
69981;SDS011;57319;56.274;43.980;2024-01-16T13:18:17;10.00;;;6.60;;
69981;SDS011;57319;56.274;43.980;2024-01-16T13:20:47;6.63;;;5.50;;
69981;SDS011;57319;56.274;43.980;2024-01-16T13:23:14;6.53;;;5.80;;
69981;SDS011;57319;56.274;43.980;2024-01-16T13:25:41;11.55;;;6.05;;
69981;SDS011;57319;56.274;43.980;2024-01-16T13:28:08;12.30;;;7.35;;
69981;SDS011;57319;56.274;43.980;2024-01-16T13:30:34;5.05;;;4.57;;
69981;SDS011;57319;56.274;43.980;2024-01-16T13:32:59;10.25;;;6.60;;
69981;SDS011;57319;56.274;43.980;2024-01-16T13:35:26;7.55;;;5.90;;
69981;SDS011;57319;56.274;43.980;2024-01-16T13:37:52;7.97;;;5.43;;
69981;SDS011;57319;56.274;43.980;2024-01-16T13:40:18;13.85;;;7.57;;
69981;SDS011;57319;56.274;43.980;2024-01-16T13:42:44;10.60;;;7.43;;
69981;SDS011;57319;56.274;43.980;2024-01-16T13:45:13;8.65;;;6.38;;
69981;SDS011;57319;56.274;43.980;2024-01-16T13:47:39;11.13;;;7.43;;
69981;SDS011;57319;56.274;43.980;2024-01-16T13:50:06;8.95;;;6.65;;
69981;SDS011;57319;56.274;43.980;2024-01-16T13:52:32;15.25;;;9.02;;
69981;SDS011;57319;56.274;43.980;2024-01-16T13:54:59;5.90;;;5.20;;
69981;SDS011;57319;56.274;43.980;2024-01-16T13:57:26;10.38;;;6.68;;
69981;SDS011;57319;56.274;43.980;2024-01-16T13:59:52;10.68;;;6.63;;
69981;SDS011;57319;56.274;43.980;2024-01-16T14:02:18;12.85;;;7.82;;
69981;SDS011;57319;56.274;43.980;2024-01-16T14:04:43;11.98;;;6.53;;
69981;SDS011;57319;56.274;43.980;2024-01-16T14:07:09;8.13;;;4.57;;
69981;SDS011;57319;56.274;43.980;2024-01-16T14:09:35;7.53;;;5.40;;
69981;SDS011;57319;56.274;43.980;2024-01-16T14:12:01;7.85;;;5.68;;
69981;SDS011;57319;56.274;43.980;2024-01-16T14:14:27;5.10;;;4.35;;
69981;SDS011;57319;56.274;43.980;2024-01-16T14:16:52;4.53;;;4.00;;
69981;SDS011;57319;56.274;43.980;2024-01-16T14:19:19;12.40;;;7.03;;
69981;SDS011;57319;56.274;43.980;2024-01-16T14:21:45;9.07;;;6.03;;
69981;SDS011;57319;56.274;43.980;2024-01-16T14:24:13;5.30;;;4.88;;
69981;SDS011;57319;56.274;43.980;2024-01-16T14:26:41;9.02;;;5.43;;
69981;SDS011;57319;56.274;43.980;2024-01-16T14:29:09;10.50;;;6.60;;
69981;SDS011;57319;56.274;43.980;2024-01-16T14:31:35;7.30;;;6.03;;
69981;SDS011;57319;56.274;43.980;2024-01-16T14:34:01;9.73;;;6.25;;
69981;SDS011;57319;56.274;43.980;2024-01-16T14:36:26;5.65;;;4.93;;